Baxter, Colorado
Current Conditions -  °F | °C
As of 4:53 PM on Friday 24 Oct 2014 (Local Time) from KPUB Reporting Station
Clear Clear  
Wind Chill: 82°   Ceiling: Unl
Heat Index: 82°   Visibility: 10mi
Dew Point: 19°   Wind: 8mph
Humidity: 10%   Direction: 120°ESE
Pressure: 30.1"   Gusts: NA
Location:  38.2482°N, 104.47°W
Report Text: KPUB 242253Z AUTO 12007KT 10SM CLR 28/M07 A3010 RMK AO2 SLP150 T02781072
Loading
Personal Weather Stations






























Interactive Weather Map
Tropical Storm Tracking
New forecast layout! Learn more

10-Day Weather Forecast

Advertisements
Track Severe Weather on mobile